This is the latest recevied weather packets stored in our database for station/object OM6ACB-6. If no packets are shown the sender has not sent any weather packets the latest 10 day(s).
| Time | Temp. | Humidity | Pressure | Rain* | Wind** | Luminosity | Snow |
|---|---|---|---|---|---|---|---|
| 1777708329 | 16.67° C | 24% | 1027.3 hPa | 0 mm | - | - | - |
| 1777707729 | 16.67° C | 24% | 1027.7 hPa | 0 mm | - | - | - |
| 1777707128 | 15° C | 25% | 1027.5 hPa | 0 mm | - | - | - |
| 1777706528 | 14.44° C | 25% | 1027.6 hPa | 0 mm | - | - | - |
| 1777705928 | 13.89° C | 25% | 1027.4 hPa | 0 mm | - | - | - |
| 1777705328 | 12.22° C | 26% | 1027.3 hPa | 0 mm | - | - | - |
| 1777704727 | 12.78° C | 26% | 1027.3 hPa | 0 mm | - | - | - |
| 1777704127 | 11.67° C | 27% | 1027.3 hPa | 0 mm | - | - | - |
| 1777703527 | 13.33° C | 26% | 1027.5 hPa | 0 mm | - | - | - |
| 1777702926 | 10.56° C | 27% | 1027.4 hPa | 0 mm | - | - | - |
| 1777702326 | 11.11° C | 27% | 1027.3 hPa | 0 mm | - | - | - |
| 1777701726 | 10° C | 28% | 1027.1 hPa | 0 mm | - | - | - |
| 1777701126 | 8.89° C | 28% | 1027 hPa | 0 mm | - | - | - |
| 1777700525 | 9.44° C | 28% | 1027.1 hPa | 0 mm | - | - | - |
| 1777699925 | 8.33° C | 28% | 1026.8 hPa | 0 mm | - | - | - |
| 1777699325 | 7.78° C | 29% | 1026.8 hPa | 0 mm | - | - | - |
| 1777698724 | 7.22° C | 29% | 1026.6 hPa | 0 mm | - | - | - |
| 1777698124 | 5.56° C | 30% | 1026.3 hPa | 0 mm | - | - | - |
| 1777697524 | 5.56° C | 30% | 1026.3 hPa | 0 mm | - | - | - |
| 1777696924 | 4.44° C | 30% | 1026.1 hPa | 0 mm | - | - | - |
| 1777696323 | 3.89° C | 31% | 1026.1 hPa | 0 mm | - | - | - |
| 1777695723 | 3.33° C | 31% | 1025.8 hPa | 0 mm | - | - | - |
| 1777695123 | 2.78° C | 31% | 1025.7 hPa | 0 mm | - | - | - |
| 1777694522 | 2.22° C | 36% | 1025.7 hPa | 0 mm | - | - | - |
| 1777693922 | 1.11° C | 61% | 1025.4 hPa | 0 mm | - | - | - |
* Rain latest hour (hover to see other rain measurements)
** Current wind speed in m/s (hover to see current wind gust speed)